sensor_id;sensor_type;location;lat;lon;timestamp;temperature;humidity
12907;DHT22;6521;50.498;8.474;2023-07-28T00:02:21;15.89;94.53
12907;DHT22;6521;50.498;8.474;2023-07-28T00:04:52;15.89;94.56
12907;DHT22;6521;50.498;8.474;2023-07-28T00:07:30;15.89;94.55
12907;DHT22;6521;50.498;8.474;2023-07-28T00:10:04;15.91;94.45
12907;DHT22;6521;50.498;8.474;2023-07-28T00:12:35;15.90;94.57
12907;DHT22;6521;50.498;8.474;2023-07-28T00:15:06;15.86;94.52
12907;DHT22;6521;50.498;8.474;2023-07-28T00:17:37;15.86;94.61
12907;DHT22;6521;50.498;8.474;2023-07-28T00:20:08;15.87;94.62
12907;DHT22;6521;50.498;8.474;2023-07-28T00:22:40;15.89;94.59
12907;DHT22;6521;50.498;8.474;2023-07-28T00:25:10;15.83;94.67
12907;DHT22;6521;50.498;8.474;2023-07-28T00:27:41;15.86;94.61
12907;DHT22;6521;50.498;8.474;2023-07-28T00:30:12;15.85;94.76
12907;DHT22;6521;50.498;8.474;2023-07-28T00:32:43;15.85;94.78
12907;DHT22;6521;50.498;8.474;2023-07-28T00:35:14;15.86;94.76
12907;DHT22;6521;50.498;8.474;2023-07-28T00:37:44;15.85;94.77
12907;DHT22;6521;50.498;8.474;2023-07-28T00:40:15;15.86;94.68
12907;DHT22;6521;50.498;8.474;2023-07-28T00:42:46;15.91;94.66
12907;DHT22;6521;50.498;8.474;2023-07-28T00:45:17;15.87;94.56
12907;DHT22;6521;50.498;8.474;2023-07-28T00:47:48;15.87;94.55
12907;DHT22;6521;50.498;8.474;2023-07-28T00:50:19;15.87;94.54
12907;DHT22;6521;50.498;8.474;2023-07-28T00:52:50;15.87;94.59
12907;DHT22;6521;50.498;8.474;2023-07-28T00:55:22;15.87;94.60
12907;DHT22;6521;50.498;8.474;2023-07-28T00:57:53;15.86;94.60
12907;DHT22;6521;50.498;8.474;2023-07-28T01:00:24;15.85;94.63
12907;DHT22;6521;50.498;8.474;2023-07-28T01:02:55;15.89;94.61
12907;DHT22;6521;50.498;8.474;2023-07-28T01:05:29;15.89;94.50
12907;DHT22;6521;50.498;8.474;2023-07-28T01:08:06;15.89;94.50
12907;DHT22;6521;50.498;8.474;2023-07-28T01:10:40;15.87;94.48
12907;DHT22;6521;50.498;8.474;2023-07-28T01:13:13;15.90;94.50
12907;DHT22;6521;50.498;8.474;2023-07-28T01:15:43;15.90;94.49
12907;DHT22;6521;50.498;8.474;2023-07-28T01:18:14;15.87;94.58
12907;DHT22;6521;50.498;8.474;2023-07-28T01:20:46;15.89;94.55
12907;DHT22;6521;50.498;8.474;2023-07-28T01:23:30;15.86;94.59
12907;DHT22;6521;50.498;8.474;2023-07-28T01:26:05;15.89;94.67
12907;DHT22;6521;50.498;8.474;2023-07-28T01:28:39;15.86;94.73
12907;DHT22;6521;50.498;8.474;2023-07-28T01:31:12;15.87;94.70
12907;DHT22;6521;50.498;8.474;2023-07-28T01:33:42;15.94;94.62
12907;DHT22;6521;50.498;8.474;2023-07-28T01:36:13;15.91;94.49
12907;DHT22;6521;50.498;8.474;2023-07-28T01:38:44;15.87;94.62
12907;DHT22;6521;50.498;8.474;2023-07-28T01:41:15;15.89;94.72
12907;DHT22;6521;50.498;8.474;2023-07-28T01:43:48;15.91;94.68
12907;DHT22;6521;50.498;8.474;2023-07-28T01:46:20;15.93;94.67
12907;DHT22;6521;50.498;8.474;2023-07-28T01:48:51;15.94;94.61
12907;DHT22;6521;50.498;8.474;2023-07-28T01:51:21;15.94;94.53
12907;DHT22;6521;50.498;8.474;2023-07-28T01:53:53;15.96;94.50
12907;DHT22;6521;50.498;8.474;2023-07-28T01:56:23;15.98;94.48
12907;DHT22;6521;50.498;8.474;2023-07-28T01:59:01;15.97;94.52
12907;DHT22;6521;50.498;8.474;2023-07-28T02:01:32;15.96;94.55
12907;DHT22;6521;50.498;8.474;2023-07-28T02:04:05;15.97;94.60
12907;DHT22;6521;50.498;8.474;2023-07-28T02:06:36;15.94;94.69
12907;DHT22;6521;50.498;8.474;2023-07-28T02:09:07;15.97;94.63
12907;DHT22;6521;50.498;8.474;2023-07-28T02:11:38;15.97;94.67
12907;DHT22;6521;50.498;8.474;2023-07-28T02:14:09;16.00;94.58
12907;DHT22;6521;50.498;8.474;2023-07-28T02:16:39;15.98;94.60
12907;DHT22;6521;50.498;8.474;2023-07-28T02:19:10;15.98;94.65
12907;DHT22;6521;50.498;8.474;2023-07-28T02:21:41;15.97;94.69
12907;DHT22;6521;50.498;8.474;2023-07-28T02:24:12;15.98;94.83
12907;DHT22;6521;50.498;8.474;2023-07-28T02:26:47;15.98;94.84
12907;DHT22;6521;50.498;8.474;2023-07-28T02:29:20;15.98;94.93
12907;DHT22;6521;50.498;8.474;2023-07-28T02:31:51;16.00;94.95
12907;DHT22;6521;50.498;8.474;2023-07-28T02:34:24;15.98;94.95
12907;DHT22;6521;50.498;8.474;2023-07-28T02:36:54;15.97;94.99
12907;DHT22;6521;50.498;8.474;2023-07-28T02:39:26;16.00;95.01
12907;DHT22;6521;50.498;8.474;2023-07-28T02:41:57;15.94;95.15
12907;DHT22;6521;50.498;8.474;2023-07-28T02:44:28;16.00;95.20
12907;DHT22;6521;50.498;8.474;2023-07-28T02:46:59;15.98;95.13
12907;DHT22;6521;50.498;8.474;2023-07-28T02:49:30;15.94;95.28
12907;DHT22;6521;50.498;8.474;2023-07-28T02:52:01;15.97;95.27
12907;DHT22;6521;50.498;8.474;2023-07-28T02:54:33;15.97;95.17
12907;DHT22;6521;50.498;8.474;2023-07-28T02:57:08;15.98;95.31
12907;DHT22;6521;50.498;8.474;2023-07-28T02:59:38;16.00;95.26
12907;DHT22;6521;50.498;8.474;2023-07-28T03:02:09;15.98;95.27
12907;DHT22;6521;50.498;8.474;2023-07-28T03:04:40;16.01;95.29
12907;DHT22;6521;50.498;8.474;2023-07-28T03:07:34;15.96;95.26
12907;DHT22;6521;50.498;8.474;2023-07-28T03:10:10;15.98;95.24
12907;DHT22;6521;50.498;8.474;2023-07-28T03:12:46;16.00;95.14
12907;DHT22;6521;50.498;8.474;2023-07-28T03:15:17;15.96;95.19
12907;DHT22;6521;50.498;8.474;2023-07-28T03:17:51;15.98;95.16
12907;DHT22;6521;50.498;8.474;2023-07-28T03:20:22;15.96;95.26
12907;DHT22;6521;50.498;8.474;2023-07-28T03:22:53;15.97;95.33
12907;DHT22;6521;50.498;8.474;2023-07-28T03:25:25;15.98;95.23
12907;DHT22;6521;50.498;8.474;2023-07-28T03:28:00;16.00;95.21
12907;DHT22;6521;50.498;8.474;2023-07-28T03:30:31;16.00;95.14
12907;DHT22;6521;50.498;8.474;2023-07-28T03:33:04;15.96;95.21
12907;DHT22;6521;50.498;8.474;2023-07-28T03:35:35;15.98;95.23
12907;DHT22;6521;50.498;8.474;2023-07-28T03:38:11;15.97;95.22
12907;DHT22;6521;50.498;8.474;2023-07-28T03:40:45;15.97;95.32
12907;DHT22;6521;50.498;8.474;2023-07-28T03:43:17;15.97;95.27
12907;DHT22;6521;50.498;8.474;2023-07-28T03:45:48;16.00;95.26
12907;DHT22;6521;50.498;8.474;2023-07-28T03:48:19;16.01;95.26
12907;DHT22;6521;50.498;8.474;2023-07-28T03:50:52;16.03;95.23
12907;DHT22;6521;50.498;8.474;2023-07-28T03:53:25;16.03;95.27
12907;DHT22;6521;50.498;8.474;2023-07-28T03:55:57;16.06;95.26
12907;DHT22;6521;50.498;8.474;2023-07-28T03:58:29;16.07;95.21
12907;DHT22;6521;50.498;8.474;2023-07-28T04:01:00;16.04;95.24
12907;DHT22;6521;50.498;8.474;2023-07-28T04:03:31;16.06;95.29
12907;DHT22;6521;50.498;8.474;2023-07-28T04:06:09;16.07;95.30
12907;DHT22;6521;50.498;8.474;2023-07-28T04:08:40;16.08;95.31
12907;DHT22;6521;50.498;8.474;2023-07-28T04:11:11;16.07;95.29
12907;DHT22;6521;50.498;8.474;2023-07-28T04:13:43;16.08;95.36
12907;DHT22;6521;50.498;8.474;2023-07-28T04:16:13;16.10;95.30
12907;DHT22;6521;50.498;8.474;2023-07-28T04:18:44;16.13;95.33
12907;DHT22;6521;50.498;8.474;2023-07-28T04:21:15;16.14;95.24
12907;DHT22;6521;50.498;8.474;2023-07-28T04:23:49;16.13;95.21
12907;DHT22;6521;50.498;8.474;2023-07-28T04:26:20;16.14;95.34
12907;DHT22;6521;50.498;8.474;2023-07-28T04:28:55;16.18;95.25
12907;DHT22;6521;50.498;8.474;2023-07-28T04:31:27;16.18;95.21
12907;DHT22;6521;50.498;8.474;2023-07-28T04:34:07;16.22;95.12
12907;DHT22;6521;50.498;8.474;2023-07-28T04:36:57;16.21;95.12
12907;DHT22;6521;50.498;8.474;2023-07-28T04:39:32;16.21;95.10
12907;DHT22;6521;50.498;8.474;2023-07-28T04:42:05;16.28;94.95
12907;DHT22;6521;50.498;8.474;2023-07-28T04:44:37;16.29;94.97
12907;DHT22;6521;50.498;8.474;2023-07-28T04:47:10;16.32;94.96
12907;DHT22;6521;50.498;8.474;2023-07-28T04:49:43;16.31;94.96
12907;DHT22;6521;50.498;8.474;2023-07-28T04:52:14;16.32;94.90
12907;DHT22;6521;50.498;8.474;2023-07-28T04:55:03;16.38;94.85
12907;DHT22;6521;50.498;8.474;2023-07-28T04:57:36;16.40;94.86
12907;DHT22;6521;50.498;8.474;2023-07-28T05:00:12;16.38;94.77
12907;DHT22;6521;50.498;8.474;2023-07-28T05:02:43;16.42;94.72
12907;DHT22;6521;50.498;8.474;2023-07-28T05:05:16;16.44;94.65
12907;DHT22;6521;50.498;8.474;2023-07-28T05:07:47;16.47;94.70
12907;DHT22;6521;50.498;8.474;2023-07-28T05:10:20;16.48;94.66
12907;DHT22;6521;50.498;8.474;2023-07-28T05:12:54;16.49;94.59
12907;DHT22;6521;50.498;8.474;2023-07-28T05:15:27;16.54;94.46
12907;DHT22;6521;50.498;8.474;2023-07-28T05:17:58;16.51;94.52
12907;DHT22;6521;50.498;8.474;2023-07-28T05:20:43;16.55;94.45
12907;DHT22;6521;50.498;8.474;2023-07-28T05:23:22;16.65;94.41
12907;DHT22;6521;50.498;8.474;2023-07-28T05:25:53;16.66;94.47
12907;DHT22;6521;50.498;8.474;2023-07-28T05:28:24;16.73;94.48
12907;DHT22;6521;50.498;8.474;2023-07-28T05:31:04;16.75;94.25
12907;DHT22;6521;50.498;8.474;2023-07-28T05:33:39;16.77;94.14
12907;DHT22;6521;50.498;8.474;2023-07-28T05:36:11;16.82;94.15
12907;DHT22;6521;50.498;8.474;2023-07-28T05:38:42;16.89;93.92
12907;DHT22;6521;50.498;8.474;2023-07-28T05:41:12;16.86;93.69
12907;DHT22;6521;50.498;8.474;2023-07-28T05:43:43;16.85;93.64
12907;DHT22;6521;50.498;8.474;2023-07-28T05:46:14;16.86;93.48
12907;DHT22;6521;50.498;8.474;2023-07-28T05:48:49;16.92;93.43
12907;DHT22;6521;50.498;8.474;2023-07-28T05:51:19;16.92;93.46
12907;DHT22;6521;50.498;8.474;2023-07-28T05:53:50;16.97;93.41
12907;DHT22;6521;50.498;8.474;2023-07-28T05:56:24;17.04;93.54
12907;DHT22;6521;50.498;8.474;2023-07-28T05:58:55;17.10;93.46
12907;DHT22;6521;50.498;8.474;2023-07-28T06:01:26;17.12;93.19
12907;DHT22;6521;50.498;8.474;2023-07-28T06:04:17;17.17;93.28
12907;DHT22;6521;50.498;8.474;2023-07-28T06:06:51;17.20;92.93
12907;DHT22;6521;50.498;8.474;2023-07-28T06:09:22;17.28;92.79
12907;DHT22;6521;50.498;8.474;2023-07-28T06:11:53;17.26;92.75
12907;DHT22;6521;50.498;8.474;2023-07-28T06:14:24;17.26;92.79
12907;DHT22;6521;50.498;8.474;2023-07-28T06:16:56;17.33;92.90
12907;DHT22;6521;50.498;8.474;2023-07-28T06:19:29;17.41;92.87
12907;DHT22;6521;50.498;8.474;2023-07-28T06:22:02;17.47;92.48
12907;DHT22;6521;50.498;8.474;2023-07-28T06:24:37;17.51;92.52
12907;DHT22;6521;50.498;8.474;2023-07-28T06:27:09;17.58;92.22
12907;DHT22;6521;50.498;8.474;2023-07-28T06:29:46;17.65;92.06
12907;DHT22;6521;50.498;8.474;2023-07-28T06:32:18;17.68;91.61
12907;DHT22;6521;50.498;8.474;2023-07-28T06:34:51;17.65;91.50
12907;DHT22;6521;50.498;8.474;2023-07-28T06:37:23;17.64;91.51
12907;DHT22;6521;50.498;8.474;2023-07-28T06:39:54;17.64;91.75
12907;DHT22;6521;50.498;8.474;2023-07-28T06:42:27;17.75;91.76
12907;DHT22;6521;50.498;8.474;2023-07-28T06:45:02;17.79;91.90
12907;DHT22;6521;50.498;8.474;2023-07-28T06:47:33;17.85;91.04
12907;DHT22;6521;50.498;8.474;2023-07-28T06:50:05;17.93;91.14
12907;DHT22;6521;50.498;8.474;2023-07-28T06:52:36;17.88;90.74
12907;DHT22;6521;50.498;8.474;2023-07-28T06:55:10;17.84;90.84
12907;DHT22;6521;50.498;8.474;2023-07-28T06:57:40;17.89;90.96
12907;DHT22;6521;50.498;8.474;2023-07-28T07:00:12;17.95;90.93
12907;DHT22;6521;50.498;8.474;2023-07-28T07:02:44;17.95;90.70
12907;DHT22;6521;50.498;8.474;2023-07-28T07:05:17;17.96;90.59
12907;DHT22;6521;50.498;8.474;2023-07-28T07:07:49;17.99;90.40
12907;DHT22;6521;50.498;8.474;2023-07-28T07:10:21;18.10;90.66
12907;DHT22;6521;50.498;8.474;2023-07-28T07:12:52;18.16;90.50
12907;DHT22;6521;50.498;8.474;2023-07-28T07:15:22;18.28;89.98
12907;DHT22;6521;50.498;8.474;2023-07-28T07:17:54;18.34;89.52
12907;DHT22;6521;50.498;8.474;2023-07-28T07:20:25;18.30;89.07
12907;DHT22;6521;50.498;8.474;2023-07-28T07:22:59;18.36;88.87
12907;DHT22;6521;50.498;8.474;2023-07-28T07:25:32;18.42;89.39
12907;DHT22;6521;50.498;8.474;2023-07-28T07:28:09;18.46;89.29
12907;DHT22;6521;50.498;8.474;2023-07-28T07:30:40;18.53;89.38
12907;DHT22;6521;50.498;8.474;2023-07-28T07:33:14;18.64;89.04
12907;DHT22;6521;50.498;8.474;2023-07-28T07:35:45;18.71;88.52
12907;DHT22;6521;50.498;8.474;2023-07-28T07:38:16;18.78;88.45
12907;DHT22;6521;50.498;8.474;2023-07-28T07:40:47;18.81;88.39
12907;DHT22;6521;50.498;8.474;2023-07-28T07:43:18;18.78;87.83
12907;DHT22;6521;50.498;8.474;2023-07-28T07:45:50;18.78;87.58
12907;DHT22;6521;50.498;8.474;2023-07-28T07:48:24;18.81;87.74
12907;DHT22;6521;50.498;8.474;2023-07-28T07:51:04;18.77;87.39
12907;DHT22;6521;50.498;8.474;2023-07-28T07:53:35;18.77;87.98
12907;DHT22;6521;50.498;8.474;2023-07-28T07:56:09;18.80;88.01
12907;DHT22;6521;50.498;8.474;2023-07-28T07:58:42;18.78;87.12
12907;DHT22;6521;50.498;8.474;2023-07-28T08:01:13;18.77;87.26
12907;DHT22;6521;50.498;8.474;2023-07-28T08:03:44;18.71;87.28
12907;DHT22;6521;50.498;8.474;2023-07-28T08:06:15;18.80;88.09
12907;DHT22;6521;50.498;8.474;2023-07-28T08:08:46;18.88;87.83
12907;DHT22;6521;50.498;8.474;2023-07-28T08:11:17;18.95;87.73
12907;DHT22;6521;50.498;8.474;2023-07-28T08:13:48;19.02;87.46
12907;DHT22;6521;50.498;8.474;2023-07-28T08:16:19;19.08;86.93
12907;DHT22;6521;50.498;8.474;2023-07-28T08:18:49;19.14;86.81
12907;DHT22;6521;50.498;8.474;2023-07-28T08:21:20;19.16;86.78
12907;DHT22;6521;50.498;8.474;2023-07-28T08:23:52;19.12;86.67
12907;DHT22;6521;50.498;8.474;2023-07-28T08:26:23;19.29;86.18
12907;DHT22;6521;50.498;8.474;2023-07-28T08:28:54;19.32;86.22
12907;DHT22;6521;50.498;8.474;2023-07-28T08:31:29;19.39;85.88
12907;DHT22;6521;50.498;8.474;2023-07-28T08:34:00;19.43;85.49
12907;DHT22;6521;50.498;8.474;2023-07-28T08:36:31;19.46;84.96
12907;DHT22;6521;50.498;8.474;2023-07-28T08:39:02;19.42;85.47
12907;DHT22;6521;50.498;8.474;2023-07-28T08:41:34;19.48;85.91
12907;DHT22;6521;50.498;8.474;2023-07-28T08:44:07;19.63;85.56
12907;DHT22;6521;50.498;8.474;2023-07-28T08:46:38;19.74;84.57
12907;DHT22;6521;50.498;8.474;2023-07-28T08:49:08;19.84;84.61
12907;DHT22;6521;50.498;8.474;2023-07-28T08:51:41;19.86;83.88
12907;DHT22;6521;50.498;8.474;2023-07-28T08:54:13;19.83;83.36
12907;DHT22;6521;50.498;8.474;2023-07-28T08:56:44;19.76;83.96
12907;DHT22;6521;50.498;8.474;2023-07-28T08:59:28;19.79;83.88
12907;DHT22;6521;50.498;8.474;2023-07-28T09:01:59;19.80;83.86
12907;DHT22;6521;50.498;8.474;2023-07-28T09:04:30;19.80;83.19
12907;DHT22;6521;50.498;8.474;2023-07-28T09:07:04;19.83;83.40
12907;DHT22;6521;50.498;8.474;2023-07-28T09:09:35;20.01;83.69
12907;DHT22;6521;50.498;8.474;2023-07-28T09:12:07;20.04;83.59
12907;DHT22;6521;50.498;8.474;2023-07-28T09:14:41;20.08;82.75
12907;DHT22;6521;50.498;8.474;2023-07-28T09:17:12;20.21;82.17
12907;DHT22;6521;50.498;8.474;2023-07-28T09:19:54;20.31;81.95
12907;DHT22;6521;50.498;8.474;2023-07-28T09:22:29;20.44;81.43
12907;DHT22;6521;50.498;8.474;2023-07-28T09:25:11;20.37;81.56
12907;DHT22;6521;50.498;8.474;2023-07-28T09:27:51;20.38;81.34
12907;DHT22;6521;50.498;8.474;2023-07-28T09:30:23;20.46;81.81
12907;DHT22;6521;50.498;8.474;2023-07-28T09:32:55;20.55;82.43
12907;DHT22;6521;50.498;8.474;2023-07-28T09:35:28;20.55;81.09
12907;DHT22;6521;50.498;8.474;2023-07-28T09:37:59;20.59;82.08
12907;DHT22;6521;50.498;8.474;2023-07-28T09:40:30;20.52;80.52
12907;DHT22;6521;50.498;8.474;2023-07-28T09:43:02;20.51;81.09
12907;DHT22;6521;50.498;8.474;2023-07-28T09:45:34;20.55;80.89
12907;DHT22;6521;50.498;8.474;2023-07-28T09:48:06;20.52;80.67
12907;DHT22;6521;50.498;8.474;2023-07-28T09:50:43;20.51;80.74
12907;DHT22;6521;50.498;8.474;2023-07-28T09:53:16;20.53;81.39
12907;DHT22;6521;50.498;8.474;2023-07-28T09:55:49;20.51;80.53
12907;DHT22;6521;50.498;8.474;2023-07-28T09:58:24;20.62;81.00
12907;DHT22;6521;50.498;8.474;2023-07-28T10:00:56;20.72;80.23
12907;DHT22;6521;50.498;8.474;2023-07-28T10:03:28;20.87;79.26
12907;DHT22;6521;50.498;8.474;2023-07-28T10:05:59;20.92;79.87
12907;DHT22;6521;50.498;8.474;2023-07-28T10:08:31;21.22;79.19
12907;DHT22;6521;50.498;8.474;2023-07-28T10:11:02;21.53;77.72
12907;DHT22;6521;50.498;8.474;2023-07-28T10:13:42;21.64;77.88
12907;DHT22;6521;50.498;8.474;2023-07-28T10:16:13;21.72;77.10
12907;DHT22;6521;50.498;8.474;2023-07-28T10:18:55;21.78;76.49
12907;DHT22;6521;50.498;8.474;2023-07-28T10:21:27;21.89;76.20
12907;DHT22;6521;50.498;8.474;2023-07-28T10:23:58;21.93;75.95
12907;DHT22;6521;50.498;8.474;2023-07-28T10:26:40;22.02;75.16
12907;DHT22;6521;50.498;8.474;2023-07-28T10:29:13;22.06;75.78
12907;DHT22;6521;50.498;8.474;2023-07-28T10:31:54;22.02;75.21
12907;DHT22;6521;50.498;8.474;2023-07-28T10:34:28;22.01;75.25
12907;DHT22;6521;50.498;8.474;2023-07-28T10:36:59;22.12;74.92
12907;DHT22;6521;50.498;8.474;2023-07-28T10:39:30;22.12;75.10
12907;DHT22;6521;50.498;8.474;2023-07-28T10:42:07;22.03;74.73
12907;DHT22;6521;50.498;8.474;2023-07-28T10:44:40;21.84;75.49
12907;DHT22;6521;50.498;8.474;2023-07-28T10:47:11;21.81;75.66
12907;DHT22;6521;50.498;8.474;2023-07-28T10:49:42;21.64;74.80
12907;DHT22;6521;50.498;8.474;2023-07-28T10:52:13;21.68;76.08
12907;DHT22;6521;50.498;8.474;2023-07-28T10:54:43;21.74;75.87
12907;DHT22;6521;50.498;8.474;2023-07-28T10:57:15;21.93;77.09
12907;DHT22;6521;50.498;8.474;2023-07-28T10:59:45;22.20;76.39
12907;DHT22;6521;50.498;8.474;2023-07-28T11:02:17;22.37;76.46
12907;DHT22;6521;50.498;8.474;2023-07-28T11:04:47;22.47;75.65
12907;DHT22;6521;50.498;8.474;2023-07-28T11:07:20;22.68;76.82
12907;DHT22;6521;50.498;8.474;2023-07-28T11:09:51;23.04;72.95
12907;DHT22;6521;50.498;8.474;2023-07-28T11:12:23;23.23;71.81
12907;DHT22;6521;50.498;8.474;2023-07-28T11:14:53;23.66;71.13
12907;DHT22;6521;50.498;8.474;2023-07-28T11:17:25;24.07;69.71
12907;DHT22;6521;50.498;8.474;2023-07-28T11:19:57;24.16;68.87
12907;DHT22;6521;50.498;8.474;2023-07-28T11:22:29;23.90;68.15
12907;DHT22;6521;50.498;8.474;2023-07-28T11:25:00;23.58;69.25
12907;DHT22;6521;50.498;8.474;2023-07-28T11:27:31;23.46;70.57
12907;DHT22;6521;50.498;8.474;2023-07-28T11:30:02;23.41;69.05
12907;DHT22;6521;50.498;8.474;2023-07-28T11:32:37;23.45;70.69
12907;DHT22;6521;50.498;8.474;2023-07-28T11:35:10;23.37;68.89
12907;DHT22;6521;50.498;8.474;2023-07-28T11:37:44;23.21;70.95
12907;DHT22;6521;50.498;8.474;2023-07-28T11:40:17;23.01;69.99
12907;DHT22;6521;50.498;8.474;2023-07-28T11:42:53;22.88;70.59
12907;DHT22;6521;50.498;8.474;2023-07-28T11:45:24;22.91;71.64
12907;DHT22;6521;50.498;8.474;2023-07-28T11:48:00;22.98;71.64
12907;DHT22;6521;50.498;8.474;2023-07-28T11:50:37;22.91;71.49
12907;DHT22;6521;50.498;8.474;2023-07-28T11:53:09;22.86;71.46
12907;DHT22;6521;50.498;8.474;2023-07-28T11:55:40;23.01;71.77
12907;DHT22;6521;50.498;8.474;2023-07-28T11:58:12;23.62;69.45
12907;DHT22;6521;50.498;8.474;2023-07-28T12:00:43;23.67;68.78
12907;DHT22;6521;50.498;8.474;2023-07-28T12:03:14;23.74;68.91
12907;DHT22;6521;50.498;8.474;2023-07-28T12:06:04;24.00;69.25
12907;DHT22;6521;50.498;8.474;2023-07-28T12:08:38;23.89;67.09
12907;DHT22;6521;50.498;8.474;2023-07-28T12:11:14;24.08;68.09
12907;DHT22;6521;50.498;8.474;2023-07-28T12:13:51;24.20;66.04
12907;DHT22;6521;50.498;8.474;2023-07-28T12:16:39;24.04;67.02
12907;DHT22;6521;50.498;8.474;2023-07-28T12:19:11;23.96;66.82
12907;DHT22;6521;50.498;8.474;2023-07-28T12:21:43;23.83;66.95
12907;DHT22;6521;50.498;8.474;2023-07-28T12:24:14;23.71;67.96
12907;DHT22;6521;50.498;8.474;2023-07-28T12:26:50;23.45;68.14
12907;DHT22;6521;50.498;8.474;2023-07-28T12:29:21;23.23;68.57
12907;DHT22;6521;50.498;8.474;2023-07-28T12:31:52;23.07;69.32
12907;DHT22;6521;50.498;8.474;2023-07-28T12:34:23;22.97;70.26
12907;DHT22;6521;50.498;8.474;2023-07-28T12:36:53;22.86;70.08
12907;DHT22;6521;50.498;8.474;2023-07-28T12:39:24;22.84;71.31
12907;DHT22;6521;50.498;8.474;2023-07-28T12:41:55;22.88;69.80
12907;DHT22;6521;50.498;8.474;2023-07-28T12:44:25;22.88;70.15
12907;DHT22;6521;50.498;8.474;2023-07-28T12:46:59;22.88;70.25
12907;DHT22;6521;50.498;8.474;2023-07-28T12:49:31;23.00;69.91
12907;DHT22;6521;50.498;8.474;2023-07-28T12:52:05;22.98;69.01
12907;DHT22;6521;50.498;8.474;2023-07-28T12:54:40;23.00;70.28
12907;DHT22;6521;50.498;8.474;2023-07-28T12:57:13;23.11;70.23
12907;DHT22;6521;50.498;8.474;2023-07-28T12:59:46;23.18;69.42
12907;DHT22;6521;50.498;8.474;2023-07-28T13:02:27;23.11;69.70
12907;DHT22;6521;50.498;8.474;2023-07-28T13:04:58;23.00;69.87
12907;DHT22;6521;50.498;8.474;2023-07-28T13:07:30;22.90;70.37
12907;DHT22;6521;50.498;8.474;2023-07-28T13:10:04;22.84;70.40
12907;DHT22;6521;50.498;8.474;2023-07-28T13:12:35;22.98;70.24
12907;DHT22;6521;50.498;8.474;2023-07-28T13:15:06;23.32;68.88
12907;DHT22;6521;50.498;8.474;2023-07-28T13:17:37;23.52;68.93
12907;DHT22;6521;50.498;8.474;2023-07-28T13:20:08;23.60;69.33
12907;DHT22;6521;50.498;8.474;2023-07-28T13:22:39;23.71;67.27
12907;DHT22;6521;50.498;8.474;2023-07-28T13:25:10;23.80;67.56
12907;DHT22;6521;50.498;8.474;2023-07-28T13:27:42;23.73;66.78
12907;DHT22;6521;50.498;8.474;2023-07-28T13:30:13;23.53;66.62
12907;DHT22;6521;50.498;8.474;2023-07-28T13:32:44;23.41;66.86
12907;DHT22;6521;50.498;8.474;2023-07-28T13:35:14;23.25;68.06
12907;DHT22;6521;50.498;8.474;2023-07-28T13:37:45;23.23;68.21
12907;DHT22;6521;50.498;8.474;2023-07-28T13:40:16;23.22;68.40
12907;DHT22;6521;50.498;8.474;2023-07-28T13:42:48;23.22;68.73
12907;DHT22;6521;50.498;8.474;2023-07-28T13:45:19;23.35;68.73
12907;DHT22;6521;50.498;8.474;2023-07-28T13:47:50;23.50;67.97
12907;DHT22;6521;50.498;8.474;2023-07-28T13:50:21;23.65;66.99
12907;DHT22;6521;50.498;8.474;2023-07-28T13:52:51;23.63;66.37
12907;DHT22;6521;50.498;8.474;2023-07-28T13:55:22;23.58;66.82
12907;DHT22;6521;50.498;8.474;2023-07-28T13:57:53;23.55;66.30
12907;DHT22;6521;50.498;8.474;2023-07-28T14:00:24;23.43;67.13
12907;DHT22;6521;50.498;8.474;2023-07-28T14:02:55;23.33;67.42
12907;DHT22;6521;50.498;8.474;2023-07-28T14:05:27;23.33;67.24
12907;DHT22;6521;50.498;8.474;2023-07-28T14:08:01;23.16;67.09
12907;DHT22;6521;50.498;8.474;2023-07-28T14:10:32;23.07;67.87
12907;DHT22;6521;50.498;8.474;2023-07-28T14:13:02;22.97;67.75
12907;DHT22;6521;50.498;8.474;2023-07-28T14:15:33;22.92;68.38
12907;DHT22;6521;50.498;8.474;2023-07-28T14:18:04;23.02;69.22
12907;DHT22;6521;50.498;8.474;2023-07-28T14:20:36;23.08;69.45
12907;DHT22;6521;50.498;8.474;2023-07-28T14:23:21;23.23;68.13
12907;DHT22;6521;50.498;8.474;2023-07-28T14:25:54;23.41;68.62
12907;DHT22;6521;50.498;8.474;2023-07-28T14:28:24;23.55;67.78
12907;DHT22;6521;50.498;8.474;2023-07-28T14:30:55;23.59;66.70
12907;DHT22;6521;50.498;8.474;2023-07-28T14:33:26;23.58;66.24
12907;DHT22;6521;50.498;8.474;2023-07-28T14:35:58;23.50;66.86
12907;DHT22;6521;50.498;8.474;2023-07-28T14:38:29;23.58;67.63
12907;DHT22;6521;50.498;8.474;2023-07-28T14:41:00;23.70;67.22
12907;DHT22;6521;50.498;8.474;2023-07-28T14:43:31;23.83;65.86
12907;DHT22;6521;50.498;8.474;2023-07-28T14:46:02;23.96;65.03
12907;DHT22;6521;50.498;8.474;2023-07-28T14:48:33;24.00;64.60
12907;DHT22;6521;50.498;8.474;2023-07-28T14:51:05;24.11;63.94
12907;DHT22;6521;50.498;8.474;2023-07-28T14:53:38;24.28;63.55
12907;DHT22;6521;50.498;8.474;2023-07-28T14:56:10;24.51;62.73
12907;DHT22;6521;50.498;8.474;2023-07-28T14:58:41;24.58;62.21
12907;DHT22;6521;50.498;8.474;2023-07-28T15:01:12;24.54;62.75
12907;DHT22;6521;50.498;8.474;2023-07-28T15:03:43;24.44;63.11
12907;DHT22;6521;50.498;8.474;2023-07-28T15:06:14;24.31;63.56
12907;DHT22;6521;50.498;8.474;2023-07-28T15:08:46;24.22;64.21
12907;DHT22;6521;50.498;8.474;2023-07-28T15:11:20;24.14;64.53
12907;DHT22;6521;50.498;8.474;2023-07-28T15:13:51;23.93;64.35
12907;DHT22;6521;50.498;8.474;2023-07-28T15:16:21;23.79;64.91
12907;DHT22;6521;50.498;8.474;2023-07-28T15:18:52;23.69;65.08
12907;DHT22;6521;50.498;8.474;2023-07-28T15:21:23;23.62;65.74
12907;DHT22;6521;50.498;8.474;2023-07-28T15:23:54;23.50;65.20
12907;DHT22;6521;50.498;8.474;2023-07-28T15:26:25;23.39;66.37
12907;DHT22;6521;50.498;8.474;2023-07-28T15:28:56;23.21;67.34
12907;DHT22;6521;50.498;8.474;2023-07-28T15:31:28;22.97;67.35
12907;DHT22;6521;50.498;8.474;2023-07-28T15:33:59;22.84;68.20
12907;DHT22;6521;50.498;8.474;2023-07-28T15:36:30;22.70;68.71
12907;DHT22;6521;50.498;8.474;2023-07-28T15:39:00;22.59;69.65
12907;DHT22;6521;50.498;8.474;2023-07-28T15:41:31;22.50;70.03
12907;DHT22;6521;50.498;8.474;2023-07-28T15:44:02;22.44;70.60
12907;DHT22;6521;50.498;8.474;2023-07-28T15:46:33;22.39;70.37
12907;DHT22;6521;50.498;8.474;2023-07-28T15:49:05;22.36;70.98
12907;DHT22;6521;50.498;8.474;2023-07-28T15:51:36;22.33;71.00
12907;DHT22;6521;50.498;8.474;2023-07-28T15:54:07;22.39;71.04
12907;DHT22;6521;50.498;8.474;2023-07-28T15:56:39;22.43;71.54
12907;DHT22;6521;50.498;8.474;2023-07-28T15:59:09;22.56;70.34
12907;DHT22;6521;50.498;8.474;2023-07-28T16:01:40;22.63;70.03
12907;DHT22;6521;50.498;8.474;2023-07-28T16:04:12;22.71;69.14
12907;DHT22;6521;50.498;8.474;2023-07-28T16:06:46;22.65;69.10
12907;DHT22;6521;50.498;8.474;2023-07-28T16:09:17;22.67;69.33
12907;DHT22;6521;50.498;8.474;2023-07-28T16:11:50;22.60;69.66
12907;DHT22;6521;50.498;8.474;2023-07-28T16:14:23;22.61;69.80
12907;DHT22;6521;50.498;8.474;2023-07-28T16:16:56;22.61;70.39
12907;DHT22;6521;50.498;8.474;2023-07-28T16:19:27;22.63;69.85